Time,TemperatureF,DewpointF,PressureIn,WindDirection,WindDirectionDegrees,WindSpeedMPH,WindSpeedGustMPH,Humidity,HourlyPrecipIn,Conditions,Clouds,dailyrainin,SolarRadiationWatts/m^2,SoftwareType,DateUTC
2013-03-14 00:00:00,36.9,19.0,30.02,North,32767,-999.0,0.0,48,0.00,,,0.00,0,Wunderground v.1.15,2013-03-14 04:00:00,
2013-03-14 00:05:00,36.9,19.0,30.02,North,32767,-999.0,0.0,48,0.00,,,0.00,0,Wunderground v.1.15,2013-03-14 04:05:00,
2013-03-14 00:15:00,36.6,18.7,30.02,North,32767,-999.0,0.0,48,0.00,,,0.00,0,Wunderground v.1.15,2013-03-14 04:15:00,
2013-03-14 00:20:00,36.5,18.2,30.03,North,32767,-999.0,0.0,47,0.00,,,0.00,0,Wunderground v.1.15,2013-03-14 04:20:00,
2013-03-14 00:25:00,36.2,18.9,30.03,North,32767,-999.0,0.0,49,0.00,,,0.00,0,Wunderground v.1.15,2013-03-14 04:25:00,
2013-03-14 00:30:00,36.0,18.2,30.03,North,32767,-999.0,0.0,48,0.00,,,0.00,0,Wunderground v.1.15,2013-03-14 04:30:00,
2013-03-14 00:35:00,35.9,18.1,30.04,North,32767,-999.0,0.0,48,0.00,,,0.00,0,Wunderground v.1.15,2013-03-14 04:35:00,
2013-03-14 00:45:00,35.8,18.0,30.04,North,32767,-999.0,0.0,48,0.00,,,0.00,0,Wunderground v.1.15,2013-03-14 04:45:00,
2013-03-14 00:50:00,35.6,17.8,30.04,North,32767,-999.0,0.0,48,0.00,,,0.00,0,Wunderground v.1.15,2013-03-14 04:50:00,
2013-03-14 01:00:00,35.3,17.5,30.04,North,32767,-999.0,0.0,48,0.00,,,0.00,0,Wunderground v.1.15,2013-03-14 05:00:00,
2013-03-14 01:10:00,34.9,18.6,30.04,North,32767,-999.0,0.0,51,0.00,,,0.00,0,Wunderground v.1.15,2013-03-14 05:10:00,
2013-03-14 01:15:00,34.7,18.4,30.04,North,32767,-999.0,0.0,51,0.00,,,0.00,0,Wunderground v.1.15,2013-03-14 05:15:00,
2013-03-14 01:25:00,34.6,18.3,30.04,North,32767,-999.0,0.0,51,0.00,,,0.00,0,Wunderground v.1.15,2013-03-14 05:25:00,
2013-03-14 01:30:00,34.4,17.7,30.04,North,32767,-999.0,0.0,50,0.00,,,0.00,0,Wunderground v.1.15,2013-03-14 05:30:00,
2013-03-14 01:35:00,34.4,17.2,30.05,North,32767,-999.0,0.0,49,0.00,,,0.00,0,Wunderground v.1.15,2013-03-14 05:35:00,
2013-03-14 01:45:00,34.1,18.3,30.05,North,32767,-999.0,0.0,52,0.00,,,0.00,0,Wunderground v.1.15,2013-03-14 05:45:00,
2013-03-14 01:50:00,34.0,17.7,30.05,North,32767,-999.0,0.0,51,0.00,,,0.00,0,Wunderground v.1.15,2013-03-14 05:50:00,
2013-03-14 02:00:00,33.7,17.0,30.05,North,32767,-999.0,0.0,50,0.00,,,0.00,0,Wunderground v.1.15,2013-03-14 06:00:00,
2013-03-14 02:05:00,33.7,17.5,30.05,North,32767,-999.0,0.0,51,0.00,,,0.00,0,Wunderground v.1.15,2013-03-14 06:05:00,
2013-03-14 02:15:00,33.4,17.2,30.05,North,32767,-999.0,0.0,51,0.00,,,0.00,0,Wunderground v.1.15,2013-03-14 06:15:00,
2013-03-14 02:20:00,33.2,17.0,30.06,North,32767,-999.0,0.0,51,0.00,,,0.00,0,Wunderground v.1.15,2013-03-14 06:20:00,
2013-03-14 02:30:00,32.5,19.3,30.06,North,32767,-999.0,0.0,58,0.00,,,0.00,0,Wunderground v.1.15,2013-03-14 06:30:00,
2013-03-14 02:35:00,32.2,18.7,30.05,North,32767,-999.0,0.0,57,0.00,,,0.00,0,Wunderground v.1.15,2013-03-14 06:35:00,
2013-03-14 02:45:00,32.8,16.6,30.05,North,32767,-999.0,0.0,51,0.00,,,0.00,0,Wunderground v.1.15,2013-03-14 06:45:00,
2013-03-14 02:50:00,32.9,16.3,30.05,North,32767,-999.0,0.0,50,0.00,,,0.00,0,Wunderground v.1.15,2013-03-14 06:50:00,
2013-03-14 02:55:00,32.9,16.3,30.05,North,32767,-999.0,0.0,50,0.00,,,0.00,0,Wunderground v.1.15,2013-03-14 06:55:00,
2013-03-14 03:05:00,32.8,16.2,30.05,North,32767,-999.0,0.0,50,0.00,,,0.00,0,Wunderground v.1.15,2013-03-14 07:05:00,
2013-03-14 03:10:00,32.8,16.6,30.05,North,32767,-999.0,0.0,51,0.00,,,0.00,0,Wunderground v.1.15,2013-03-14 07:10:00,
2013-03-14 03:15:00,32.5,16.4,30.05,North,32767,-999.0,0.0,51,0.00,,,0.00,0,Wunderground v.1.15,2013-03-14 07:15:00,
2013-03-14 03:25:00,32.5,15.9,30.06,North,32767,-999.0,0.0,50,0.00,,,0.00,0,Wunderground v.1.15,2013-03-14 07:25:00,
2013-03-14 03:30:00,32.5,15.9,30.06,North,32767,-999.0,0.0,50,0.00,,,0.00,0,Wunderground v.1.15,2013-03-14 07:30:00,
2013-03-14 03:35:00,32.5,15.9,30.05,North,32767,-999.0,0.0,50,0.00,,,0.00,0,Wunderground v.1.15,2013-03-14 07:35:00,
2013-03-14 03:40:00,32.5,15.9,30.05,North,32767,-999.0,0.0,50,0.00,,,0.00,0,Wunderground v.1.15,2013-03-14 07:40:00,
2013-03-14 03:45:00,32.4,16.3,30.05,North,32767,-999.0,0.0,51,0.00,,,0.00,0,Wunderground v.1.15,2013-03-14 07:45:00,
2013-03-14 03:50:00,32.2,16.5,30.05,North,32767,-999.0,0.0,52,0.00,,,0.00,0,Wunderground v.1.15,2013-03-14 07:50:00,
2013-03-14 04:00:00,32.1,16.0,30.05,North,32767,-999.0,0.0,51,0.00,,,0.00,0,Wunderground v.1.15,2013-03-14 08:00:00,
2013-03-14 04:10:00,31.8,16.2,30.05,North,32767,-999.0,0.0,52,0.00,,,0.00,0,Wunderground v.1.15,2013-03-14 08:10:00,
2013-03-14 04:20:00,31.5,16.7,30.05,North,32767,-999.0,0.0,54,0.00,,,0.00,0,Wunderground v.1.15,2013-03-14 08:20:00,
2013-03-14 04:25:00,31.2,16.9,30.05,North,32767,-999.0,0.0,55,0.00,,,0.00,0,Wunderground v.1.15,2013-03-14 08:25:00,
2013-03-14 04:30:00,30.9,16.6,30.05,North,32767,-999.0,0.0,55,0.00,,,0.00,0,Wunderground v.1.15,2013-03-14 08:30:00,
2013-03-14 04:35:00,30.9,16.6,30.05,North,32767,-999.0,0.0,55,0.00,,,0.00,0,Wunderground v.1.15,2013-03-14 08:35:00,
2013-03-14 04:45:00,30.6,16.7,30.05,North,32767,-999.0,0.0,56,0.00,,,0.00,0,Wunderground v.1.15,2013-03-14 08:45:00,
2013-03-14 04:50:00,30.4,17.0,30.05,North,32767,-999.0,0.0,57,0.00,,,0.00,0,Wunderground v.1.15,2013-03-14 08:50:00,
2013-03-14 05:00:00,30.0,18.2,30.05,North,32767,-999.0,0.0,61,0.00,,,0.00,0,Wunderground v.1.15,2013-03-14 09:00:00,
2013-03-14 05:05:00,30.0,18.2,30.06,North,32767,-999.0,0.0,61,0.00,,,0.00,0,Wunderground v.1.15,2013-03-14 09:05:00,
2013-03-14 05:15:00,30.0,17.0,30.06,North,32767,-999.0,0.0,58,0.00,,,0.00,0,Wunderground v.1.15,2013-03-14 09:15:00,
2013-03-14 05:20:00,30.0,17.0,30.06,North,32767,-999.0,0.0,58,0.00,,,0.00,0,Wunderground v.1.15,2013-03-14 09:20:00,
2013-03-14 05:30:00,30.1,16.7,30.06,North,32767,-999.0,0.0,57,0.00,,,0.00,0,Wunderground v.1.15,2013-03-14 09:30:00,
2013-03-14 05:35:00,30.0,17.0,30.07,North,32767,-999.0,0.0,58,0.00,,,0.00,0,Wunderground v.1.15,2013-03-14 09:35:00,
2013-03-14 05:40:00,30.0,17.0,30.07,North,32767,-999.0,0.0,58,0.00,,,0.00,0,Wunderground v.1.15,2013-03-14 09:40:00,
2013-03-14 05:50:00,29.3,18.3,30.07,North,32767,-999.0,0.0,63,0.00,,,0.00,0,Wunderground v.1.15,2013-03-14 09:50:00,
2013-03-14 05:55:00,29.0,17.2,30.07,North,32767,-999.0,0.0,61,0.00,,,0.00,0,Wunderground v.1.15,2013-03-14 09:55:00,
2013-03-14 06:00:00,29.0,18.0,30.07,North,32767,-999.0,0.0,63,0.00,,,0.00,0,Wunderground v.1.15,2013-03-14 10:00:00,
2013-03-14 06:10:00,28.7,16.9,30.08,North,32767,-999.0,0.0,61,0.00,,,0.00,0,Wunderground v.1.15,2013-03-14 10:10:00,
2013-03-14 06:15:00,28.7,17.3,30.08,North,32767,-999.0,0.0,62,0.00,,,0.00,0,Wunderground v.1.15,2013-03-14 10:15:00,
2013-03-14 06:20:00,28.8,17.0,30.08,North,32767,-999.0,0.0,61,0.00,,,0.00,0,Wunderground v.1.15,2013-03-14 10:20:00,
2013-03-14 06:25:00,29.1,16.5,30.08,North,32767,-999.0,0.0,59,0.00,,,0.00,0,Wunderground v.1.15,2013-03-14 10:25:00,
2013-03-14 06:35:00,29.1,17.3,30.09,North,32767,-999.0,0.0,61,0.00,,,0.00,0,Wunderground v.1.15,2013-03-14 10:35:00,
2013-03-14 06:45:00,28.8,17.0,30.09,North,32767,-999.0,0.0,61,0.00,,,0.00,0,Wunderground v.1.15,2013-03-14 10:45:00,
2013-03-14 06:50:00,28.8,17.8,30.09,North,32767,-999.0,0.0,63,0.00,,,0.00,0,Wunderground v.1.15,2013-03-14 10:50:00,
2013-03-14 07:00:00,28.5,17.9,30.09,North,32767,-999.0,0.0,64,0.00,,,0.00,0,Wunderground v.1.15,2013-03-14 11:00:00,
2013-03-14 07:10:00,28.7,17.3,30.09,North,32767,-999.0,0.0,62,0.00,,,0.00,0,Wunderground v.1.15,2013-03-14 11:10:00,
2013-03-14 07:20:00,28.8,17.4,30.10,North,32767,-999.0,0.0,62,0.00,,,0.00,0,Wunderground v.1.15,2013-03-14 11:20:00,
2013-03-14 07:25:00,28.8,17.0,30.10,North,32767,-999.0,0.0,61,0.00,,,0.00,0,Wunderground v.1.15,2013-03-14 11:25:00,
2013-03-14 07:35:00,28.8,17.0,30.11,North,32767,-999.0,0.0,61,0.00,,,0.00,0,Wunderground v.1.15,2013-03-14 11:35:00,
2013-03-14 07:40:00,28.8,17.4,30.11,North,32767,-999.0,0.0,62,0.00,,,0.00,0,Wunderground v.1.15,2013-03-14 11:40:00,
2013-03-14 07:50:00,28.8,17.4,30.11,North,32767,-999.0,0.0,62,0.00,,,0.00,9,Wunderground v.1.15,2013-03-14 11:50:00,
2013-03-14 07:55:00,29.0,18.3,30.11,North,32767,-999.0,0.0,64,0.00,,,0.00,11,Wunderground v.1.15,2013-03-14 11:55:00,
2013-03-14 08:00:00,28.8,18.1,30.11,North,32767,-999.0,0.0,64,0.00,,,0.00,12,Wunderground v.1.15,2013-03-14 12:00:00,
2013-03-14 08:05:00,29.0,17.6,30.12,North,32767,-999.0,0.0,62,0.00,,,0.00,14,Wunderground v.1.15,2013-03-14 12:05:00,
2013-03-14 08:10:00,29.0,17.2,30.12,North,32767,-999.0,0.0,61,0.00,,,0.00,14,Wunderground v.1.15,2013-03-14 12:10:00,
2013-03-14 08:20:00,29.1,18.8,30.12,North,32767,-999.0,0.0,65,0.00,,,0.00,21,Wunderground v.1.15,2013-03-14 12:20:00,
2013-03-14 08:25:00,29.4,16.8,30.12,North,32767,-999.0,0.0,59,0.00,,,0.00,23,Wunderground v.1.15,2013-03-14 12:25:00,
2013-03-14 08:35:00,30.1,17.9,30.13,North,32767,-999.0,0.0,60,0.00,,,0.00,44,Wunderground v.1.15,2013-03-14 12:35:00,
2013-03-14 08:45:00,30.7,18.4,30.13,NW,315,0.0,0.0,60,0.00,,,0.00,86,Wunderground v.1.15,2013-03-14 12:45:00,
2013-03-14 08:50:00,31.2,17.7,30.13,NW,326,1.0,1.0,57,0.00,,,0.00,35,Wunderground v.1.15,2013-03-14 12:50:00,
2013-03-14 09:00:00,32.1,17.3,30.13,NNE,16,2.0,2.0,54,0.00,,,0.00,135,Wunderground v.1.15,2013-03-14 13:00:00,
2013-03-14 09:05:00,32.5,18.1,30.13,North,1,2.0,2.0,55,0.00,,,0.00,102,Wunderground v.1.15,2013-03-14 13:05:00,
2013-03-14 09:15:00,33.2,18.3,30.13,NW,308,1.0,2.0,54,0.00,,,0.00,107,Wunderground v.1.15,2013-03-14 13:15:00,
2013-03-14 09:25:00,34.0,18.2,30.13,North,0,1.0,1.0,52,0.00,,,0.00,204,Wunderground v.1.15,2013-03-14 13:25:00,
2013-03-14 09:30:00,34.4,18.1,30.13,ENE,61,2.0,6.0,51,0.00,,,0.00,260,Wunderground v.1.15,2013-03-14 13:30:00,
2013-03-14 09:35:00,34.6,17.4,30.13,NNE,14,2.0,6.0,49,0.00,,,0.00,171,Wunderground v.1.15,2013-03-14 13:35:00,
2013-03-14 09:40:00,34.7,17.0,30.13,NNW,337,4.0,9.0,48,0.00,,,0.00,195,Wunderground v.1.15,2013-03-14 13:40:00,
2013-03-14 09:50:00,35.0,17.7,30.13,North,350,5.0,5.0,49,0.00,,,0.00,246,Wunderground v.1.15,2013-03-14 13:50:00,
2013-03-14 09:55:00,35.6,17.3,30.13,North,349,3.0,5.0,47,0.00,,,0.00,171,Wunderground v.1.15,2013-03-14 13:55:00,
2013-03-14 10:00:00,35.9,17.1,30.13,North,353,3.0,4.0,46,0.00,,,0.00,329,Wunderground v.1.15,2013-03-14 14:00:00,
2013-03-14 10:05:00,36.0,17.2,30.14,North,356,3.0,4.0,46,0.00,,,0.00,350,Wunderground v.1.15,2013-03-14 14:05:00,
2013-03-14 10:15:00,37.0,17.1,30.14,North,0,2.0,6.0,44,0.00,,,0.00,371,Wunderground v.1.15,2013-03-14 14:15:00,
2013-03-14 10:20:00,37.0,17.1,30.14,West,280,3.0,3.0,44,0.00,,,0.00,194,Wunderground v.1.15,2013-03-14 14:20:00,
2013-03-14 10:30:00,37.8,18.3,30.14,NW,306,4.0,4.0,45,0.00,,,0.00,213,Wunderground v.1.15,2013-03-14 14:30:00,
2013-03-14 10:35:00,37.8,17.3,30.14,NNE,30,4.0,7.0,43,0.00,,,0.00,269,Wunderground v.1.15,2013-03-14 14:35:00,
2013-03-14 10:45:00,38.3,16.6,30.14,NW,308,5.0,8.0,41,0.00,,,0.00,262,Wunderground v.1.15,2013-03-14 14:45:00,
2013-03-14 10:50:00,38.9,17.7,30.14,NNE,32,3.0,3.0,42,0.00,,,0.00,428,Wunderground v.1.15,2013-03-14 14:50:00,
2013-03-14 11:00:00,39.3,17.5,30.14,NNW,335,3.0,3.0,41,0.00,,,0.00,456,Wunderground v.1.15,2013-03-14 15:00:00,
2013-03-14 11:10:00,40.2,18.9,30.14,North,8,3.0,3.0,42,0.00,,,0.00,619,Wunderground v.1.15,2013-03-14 15:10:00,
2013-03-14 11:15:00,40.2,18.3,30.14,NW,316,4.0,4.0,41,0.00,,,0.00,614,Wunderground v.1.15,2013-03-14 15:15:00,
2013-03-14 11:25:00,40.5,17.5,30.14,NW,322,4.0,6.0,39,0.00,,,0.00,380,Wunderground v.1.15,2013-03-14 15:25:00,
2013-03-14 11:30:00,40.9,17.8,30.14,NW,322,5.0,6.0,39,0.00,,,0.00,435,Wunderground v.1.15,2013-03-14 15:30:00,
2013-03-14 11:40:00,41.2,17.5,30.14,NNW,336,3.0,3.0,38,0.00,,,0.00,267,Wunderground v.1.15,2013-03-14 15:40:00,
2013-03-14 11:50:00,41.9,18.7,30.13,NNE,14,2.0,2.0,39,0.00,,,0.00,429,Wunderground v.1.15,2013-03-14 15:50:00,
2013-03-14 11:55:00,42.2,19.0,30.13,NW,318,2.0,2.0,39,0.00,,,0.00,341,Wunderground v.1.15,2013-03-14 15:55:00,
2013-03-14 12:05:00,43.2,18.6,30.12,WNW,299,2.0,3.0,37,0.00,,,0.00,457,Wunderground v.1.15,2013-03-14 16:05:00,
2013-03-14 12:10:00,43.5,17.6,30.12,NNW,340,2.0,2.0,35,0.00,,,0.00,457,Wunderground v.1.15,2013-03-14 16:10:00,
2013-03-14 12:20:00,43.5,18.9,30.12,WNW,296,2.0,4.0,37,0.00,,,0.00,364,Wunderground v.1.15,2013-03-14 16:20:00,
2013-03-14 12:25:00,43.6,19.0,30.12,WNW,294,3.0,4.0,37,0.00,,,0.00,456,Wunderground v.1.15,2013-03-14 16:25:00,
2013-03-14 12:30:00,43.9,17.3,30.12,North,357,3.0,6.0,34,0.00,,,0.00,530,Wunderground v.1.15,2013-03-14 16:30:00,
2013-03-14 12:40:00,44.2,18.2,30.12,NNW,330,4.0,4.0,35,0.00,,,0.00,276,Wunderground v.1.15,2013-03-14 16:40:00,
2013-03-14 12:50:00,44.6,17.9,30.11,North,356,3.0,8.0,34,0.00,,,0.00,225,Wunderground v.1.15,2013-03-14 16:50:00,
2013-03-14 12:55:00,44.8,18.8,30.11,WNW,301,3.0,8.0,35,0.00,,,0.00,556,Wunderground v.1.15,2013-03-14 16:55:00,
2013-03-14 13:05:00,46.0,18.5,30.10,NNE,18,2.0,6.0,33,0.00,,,0.00,113,Wunderground v.1.15,2013-03-14 17:05:00,
2013-03-14 13:10:00,45.8,17.6,30.10,NNE,24,3.0,3.0,32,0.00,,,0.00,232,Wunderground v.1.15,2013-03-14 17:10:00,
2013-03-14 13:20:00,45.8,17.6,30.09,North,7,2.0,2.0,32,0.00,,,0.00,146,Wunderground v.1.15,2013-03-14 17:20:00,
2013-03-14 13:25:00,46.1,17.8,30.09,North,349,2.0,2.0,32,0.00,,,0.00,107,Wunderground v.1.15,2013-03-14 17:25:00,
2013-03-14 13:30:00,46.8,19.2,30.09,NW,323,1.0,1.0,33,0.00,,,0.00,238,Wunderground v.1.15,2013-03-14 17:30:00,
2013-03-14 13:40:00,47.7,18.5,30.09,NNW,332,2.0,2.0,31,0.00,,,0.00,746,Wunderground v.1.15,2013-03-14 17:40:00,
2013-03-14 13:45:00,47.7,19.2,30.09,NW,306,3.0,3.0,32,0.00,,,0.00,586,Wunderground v.1.15,2013-03-14 17:45:00,
2013-03-14 13:55:00,48.3,19.0,30.09,NW,316,2.0,8.0,31,0.00,,,0.00,651,Wunderground v.1.15,2013-03-14 17:55:00,
2013-03-14 14:00:00,48.0,18.0,30.09,NNW,346,5.0,5.0,30,0.00,,,0.00,572,Wunderground v.1.15,2013-03-14 18:00:00,
2013-03-14 14:10:00,48.0,17.2,30.08,WNW,284,3.0,3.0,29,0.00,,,0.00,718,Wunderground v.1.15,2013-03-14 18:10:00,
2013-03-14 14:15:00,48.5,18.4,30.08,WNW,299,3.0,6.0,30,0.00,,,0.00,438,Wunderground v.1.15,2013-03-14 18:15:00,
2013-03-14 14:25:00,48.8,17.9,30.07,NW,304,3.0,3.0,29,0.00,,,0.00,581,Wunderground v.1.15,2013-03-14 18:25:00,
2013-03-14 14:35:00,49.5,18.5,30.06,West,280,2.0,2.0,29,0.00,,,0.00,732,Wunderground v.1.15,2013-03-14 18:35:00,
2013-03-14 14:45:00,50.2,18.3,30.06,NW,313,2.0,2.0,28,0.00,,,0.00,547,Wunderground v.1.15,2013-03-14 18:45:00,
2013-03-14 14:55:00,50.4,18.5,30.06,North,357,2.0,10.0,28,0.00,,,0.00,542,Wunderground v.1.15,2013-03-14 18:55:00,
2013-03-14 15:05:00,50.4,18.5,30.05,NW,320,4.0,4.0,28,0.00,,,0.00,618,Wunderground v.1.15,2013-03-14 19:05:00,
2013-03-14 15:15:00,51.1,18.2,30.05,WNW,295,3.0,6.0,27,0.00,,,0.00,626,Wunderground v.1.15,2013-03-14 19:15:00,
2013-03-14 15:20:00,51.4,18.5,30.04,NNW,333,3.0,3.0,27,0.00,,,0.00,614,Wunderground v.1.15,2013-03-14 19:20:00,
2013-03-14 15:30:00,51.7,19.6,30.04,WNW,291,3.0,7.0,28,0.00,,,0.00,230,Wunderground v.1.15,2013-03-14 19:30:00,
2013-03-14 15:35:00,51.7,17.9,30.04,WNW,298,3.0,7.0,26,0.00,,,0.00,329,Wunderground v.1.15,2013-03-14 19:35:00,
2013-03-14 15:45:00,51.9,18.9,30.04,WNW,296,4.0,4.0,27,0.00,,,0.00,213,Wunderground v.1.15,2013-03-14 19:45:00,
2013-03-14 15:50:00,51.9,18.9,30.03,WNW,296,3.0,6.0,27,0.00,,,0.00,202,Wunderground v.1.15,2013-03-14 19:50:00,
2013-03-14 16:00:00,51.9,18.9,30.03,SW,233,3.0,3.0,27,0.00,,,0.00,188,Wunderground v.1.15,2013-03-14 20:00:00,
2013-03-14 16:05:00,52.0,19.0,30.03,NNW,342,2.0,3.0,27,0.00,,,0.00,169,Wunderground v.1.15,2013-03-14 20:05:00,
2013-03-14 16:15:00,52.5,18.6,30.03,WSW,253,3.0,3.0,26,0.00,,,0.00,93,Wunderground v.1.15,2013-03-14 20:15:00,
2013-03-14 16:20:00,52.8,19.7,30.03,WSW,240,3.0,3.0,27,0.00,,,0.00,113,Wunderground v.1.15,2013-03-14 20:20:00,
2013-03-14 16:25:00,53.1,19.1,30.03,WSW,258,2.0,3.0,26,0.00,,,0.00,201,Wunderground v.1.15,2013-03-14 20:25:00,
2013-03-14 16:35:00,52.9,18.0,30.02,NW,306,4.0,6.0,25,0.00,,,0.00,128,Wunderground v.1.15,2013-03-14 20:35:00,
2013-03-14 16:40:00,52.8,18.8,30.02,NNW,336,4.0,4.0,26,0.00,,,0.00,74,Wunderground v.1.15,2013-03-14 20:40:00,
2013-03-14 16:45:00,52.8,19.7,30.02,NNW,330,4.0,4.0,27,0.00,,,0.00,403,Wunderground v.1.15,2013-03-14 20:45:00,
2013-03-14 16:55:00,52.9,18.9,30.02,NW,313,2.0,4.0,26,0.00,,,0.00,348,Wunderground v.1.15,2013-03-14 20:55:00,
2013-03-14 17:05:00,53.3,19.2,30.01,NNW,335,3.0,6.0,26,0.00,,,0.00,266,Wunderground v.1.15,2013-03-14 21:05:00,
2013-03-14 17:15:00,53.3,19.2,30.01,West,264,2.0,4.0,26,0.00,,,0.00,301,Wunderground v.1.15,2013-03-14 21:15:00,
2013-03-14 17:20:00,53.2,17.3,30.01,NW,306,2.0,2.0,24,0.00,,,0.00,292,Wunderground v.1.15,2013-03-14 21:20:00,
2013-03-14 17:30:00,52.9,18.0,30.01,WSW,248,3.0,3.0,25,0.00,,,0.00,262,Wunderground v.1.15,2013-03-14 21:30:00,
2013-03-14 17:35:00,52.8,17.9,30.01,NW,308,2.0,3.0,25,0.00,,,0.00,236,Wunderground v.1.15,2013-03-14 21:35:00,
2013-03-14 17:40:00,52.8,18.8,30.01,NW,315,2.0,2.0,26,0.00,,,0.00,252,Wunderground v.1.15,2013-03-14 21:40:00,
2013-03-14 17:45:00,52.5,17.6,30.01,WNW,292,3.0,4.0,25,0.00,,,0.00,187,Wunderground v.1.15,2013-03-14 21:45:00,
2013-03-14 17:55:00,51.7,17.9,30.01,NW,322,3.0,3.0,26,0.00,,,0.00,42,Wunderground v.1.15,2013-03-14 21:55:00,
2013-03-14 18:00:00,51.4,18.5,30.01,NW,322,2.0,2.0,27,0.00,,,0.00,90,Wunderground v.1.15,2013-03-14 22:00:00,
2013-03-14 18:10:00,51.0,16.4,30.01,NW,312,1.0,1.0,25,0.00,,,0.00,39,Wunderground v.1.15,2013-03-14 22:10:00,
2013-03-14 18:15:00,50.8,18.0,30.01,NW,312,1.0,1.0,27,0.00,,,0.00,33,Wunderground v.1.15,2013-03-14 22:15:00,
2013-03-14 18:25:00,50.4,17.6,30.01,North,32767,-999.0,0.0,27,0.00,,,0.00,32,Wunderground v.1.15,2013-03-14 22:25:00,
2013-03-14 18:30:00,50.1,16.5,30.01,North,32767,-999.0,0.0,26,0.00,,,0.00,25,Wunderground v.1.15,2013-03-14 22:30:00,
2013-03-14 18:40:00,49.6,16.9,30.01,North,32767,-999.0,0.0,27,0.00,,,0.00,19,Wunderground v.1.15,2013-03-14 22:40:00,
2013-03-14 18:45:00,49.5,16.9,30.01,North,32767,-999.0,0.0,27,0.00,,,0.00,14,Wunderground v.1.15,2013-03-14 22:45:00,
2013-03-14 18:50:00,49.2,16.6,30.02,North,32767,-999.0,0.0,27,0.00,,,0.00,12,Wunderground v.1.15,2013-03-14 22:50:00,
2013-03-14 18:55:00,48.9,17.2,30.02,North,32767,-999.0,0.0,28,0.00,,,0.00,9,Wunderground v.1.15,2013-03-14 22:55:00,
2013-03-14 19:00:00,48.8,16.2,30.02,North,32767,-999.0,0.0,27,0.00,,,0.00,7,Wunderground v.1.15,2013-03-14 23:00:00,
2013-03-14 19:10:00,48.0,15.6,30.02,North,32767,-999.0,0.0,27,0.00,,,0.00,0,Wunderground v.1.15,2013-03-14 23:10:00,
2013-03-14 19:15:00,47.7,16.9,30.02,North,32767,-999.0,0.0,29,0.00,,,0.00,0,Wunderground v.1.15,2013-03-14 23:15:00,
2013-03-14 19:25:00,47.3,16.6,30.02,North,32767,-999.0,0.0,29,0.00,,,0.00,0,Wunderground v.1.15,2013-03-14 23:25:00,
2013-03-14 19:30:00,47.0,17.1,30.02,North,32767,-999.0,0.0,30,0.00,,,0.00,0,Wunderground v.1.15,2013-03-14 23:30:00,
2013-03-14 19:40:00,46.2,16.4,30.03,North,32767,-999.0,0.0,30,0.00,,,0.00,0,Wunderground v.1.15,2013-03-14 23:40:00,
2013-03-14 19:50:00,45.7,17.5,30.03,North,32767,-999.0,0.0,32,0.00,,,0.00,0,Wunderground v.1.15,2013-03-14 23:50:00,
2013-03-14 19:55:00,45.5,16.6,30.03,North,32767,-999.0,0.0,31,0.00,,,0.00,0,Wunderground v.1.15,2013-03-14 23:55:00,
2013-03-14 20:05:00,45.2,16.3,30.03,North,32767,-999.0,0.0,31,0.00,,,0.00,0,Wunderground v.1.15,2013-03-15 00:05:00,
2013-03-14 20:15:00,44.6,16.5,30.03,North,32767,-999.0,0.0,32,0.00,,,0.00,0,Wunderground v.1.15,2013-03-15 00:15:00,
2013-03-14 20:25:00,44.2,16.9,30.03,North,32767,-999.0,0.0,33,0.00,,,0.00,0,Wunderground v.1.15,2013-03-15 00:25:00,
2013-03-14 20:30:00,43.9,16.6,30.03,North,32767,-999.0,0.0,33,0.00,,,0.00,0,Wunderground v.1.15,2013-03-15 00:30:00,
2013-03-14 20:40:00,43.3,16.8,30.02,North,32767,-999.0,0.0,34,0.00,,,0.00,0,Wunderground v.1.15,2013-03-15 00:40:00,
2013-03-14 20:50:00,42.9,17.1,30.02,North,32767,-999.0,0.0,35,0.00,,,0.00,0,Wunderground v.1.15,2013-03-15 00:50:00,
2013-03-14 20:55:00,42.8,17.0,30.02,North,32767,-999.0,0.0,35,0.00,,,0.00,0,Wunderground v.1.15,2013-03-15 00:55:00,
2013-03-14 21:00:00,42.6,16.2,30.02,North,32767,-999.0,0.0,34,0.00,,,0.00,0,Wunderground v.1.15,2013-03-15 01:00:00,
2013-03-14 21:10:00,42.3,15.9,30.03,North,32767,-999.0,0.0,34,0.00,,,0.00,0,Wunderground v.1.15,2013-03-15 01:10:00,
2013-03-14 21:20:00,42.1,16.4,30.03,North,32767,-999.0,0.0,35,0.00,,,0.00,0,Wunderground v.1.15,2013-03-15 01:20:00,
2013-03-14 21:25:00,42.1,17.0,30.03,North,32767,-999.0,0.0,36,0.00,,,0.00,0,Wunderground v.1.15,2013-03-15 01:25:00,
2013-03-14 21:30:00,42.2,17.1,30.03,North,32767,-999.0,0.0,36,0.00,,,0.00,0,Wunderground v.1.15,2013-03-15 01:30:00,
2013-03-14 21:35:00,42.2,17.8,30.03,North,32767,-999.0,0.0,37,0.00,,,0.00,0,Wunderground v.1.15,2013-03-15 01:35:00,
2013-03-14 21:40:00,41.9,17.5,30.03,North,32767,-999.0,0.0,37,0.00,,,0.00,0,Wunderground v.1.15,2013-03-15 01:40:00,
2013-03-14 21:50:00,41.5,17.1,30.03,North,32767,-999.0,0.0,37,0.00,,,0.00,0,Wunderground v.1.15,2013-03-15 01:50:00,
2013-03-14 21:55:00,41.5,16.5,30.03,North,32767,-999.0,0.0,36,0.00,,,0.00,0,Wunderground v.1.15,2013-03-15 01:55:00,
2013-03-14 22:00:00,41.5,16.5,30.03,North,32767,-999.0,0.0,36,0.00,,,0.00,0,Wunderground v.1.15,2013-03-15 02:00:00,
2013-03-14 22:05:00,41.5,17.1,30.04,North,32767,-999.0,0.0,37,0.00,,,0.00,0,Wunderground v.1.15,2013-03-15 02:05:00,
2013-03-14 22:10:00,41.5,16.5,30.04,North,32767,-999.0,0.0,36,0.00,,,0.00,0,Wunderground v.1.15,2013-03-15 02:10:00,
2013-03-14 22:15:00,41.3,16.3,30.04,North,32767,-999.0,0.0,36,0.00,,,0.00,0,Wunderground v.1.15,2013-03-15 02:15:00,
2013-03-14 22:20:00,41.2,16.9,30.04,North,32767,-999.0,0.0,37,0.00,,,0.00,0,Wunderground v.1.15,2013-03-15 02:20:00,
2013-03-14 22:25:00,40.8,17.1,30.04,North,32767,-999.0,0.0,38,0.00,,,0.00,0,Wunderground v.1.15,2013-03-15 02:25:00,
2013-03-14 22:35:00,40.2,17.2,30.04,North,32767,-999.0,0.0,39,0.00,,,0.00,0,Wunderground v.1.15,2013-03-15 02:35:00,
2013-03-14 22:45:00,40.5,16.9,30.04,North,32767,-999.0,0.0,38,0.00,,,0.00,0,Wunderground v.1.15,2013-03-15 02:45:00,
2013-03-14 22:55:00,40.8,17.7,30.04,North,32767,-999.0,0.0,39,0.00,,,0.00,0,Wunderground v.1.15,2013-03-15 02:55:00,
2013-03-14 23:05:00,40.2,18.3,30.04,North,32767,-999.0,0.0,41,0.00,,,0.00,0,Wunderground v.1.15,2013-03-15 03:05:00,
2013-03-14 23:15:00,39.6,18.4,30.04,North,32767,-999.0,0.0,42,0.00,,,0.00,0,Wunderground v.1.15,2013-03-15 03:15:00,
2013-03-14 23:25:00,39.6,17.2,30.04,North,32767,-999.0,0.0,40,0.00,,,0.00,0,Wunderground v.1.15,2013-03-15 03:25:00,
2013-03-14 23:30:00,40.1,17.1,30.04,North,32767,-999.0,0.0,39,0.00,,,0.00,0,Wunderground v.1.15,2013-03-15 03:30:00,
2013-03-14 23:35:00,40.3,17.3,30.05,North,32767,-999.0,0.0,39,0.00,,,0.00,0,Wunderground v.1.15,2013-03-15 03:35:00,
2013-03-14 23:45:00,40.2,18.9,30.05,North,32767,-999.0,0.0,42,0.00,,,0.00,0,Wunderground v.1.15,2013-03-15 03:45:00,
2013-03-14 23:55:00,39.6,18.9,30.05,North,32767,-999.0,0.0,43,0.00,,,0.00,0,Wunderground v.1.15,2013-03-15 03:55:00,